Latest Weather Observations for Leigh Creek

IDS60801

Issued at 2:01 am CDT Wednesday 19 February 2020 (issued every 10 minutes, with the page automatically refreshed every 10 minutes)

About weather observations | Map of weather stations | Latest weather observations for SA | Other Formats
Station Details ID: 017110 Name: LEIGH CREEK AIRPORT Lat: -30.60 Lon: 138.42 Height: 258.8 m
Data from the previous 72 hours. | See also: Recent months at Leigh Creek
Date/Time
CDT
Temp
°C
App
Temp
°C
Dew
Point
°C
Rel
Hum
%
Delta-T
°C
Wind Press
QNH
hPa
Press
MSL
hPa
Rain since
9am
mm
Dir  Spd
km/h
Gust
km/h
Spd
kts
Gust
kts
19/02:00am 17.7 12.8 10.1 61 4.1 S 26 37 14 20 1014.3 1012.7 0.0
19/01:30am 17.9 13.2 10.5 62 4.0 SSW 26 35 14 19 1014.3 1012.7 0.0
19/01:00am 18.1 13.0 10.7 62 4.0 S 28 37 15 20 1014.4 1012.8 0.0
19/12:30am 18.4 12.4 10.8 61 4.2 S 33 46 18 25 1014.5 1012.9 0.0
19/12:00am 18.6 12.8 10.7 60 4.3 S 32 46 17 25 1014.5 1012.9 0.0
 
Date/Time
CDT
Temp
°C
App
Temp
°C
Dew
Point
°C
Rel
Hum
%
Delta-T
°C
Wind Press
QNH
hPa
Press
MSL
hPa
Rain since
9am
mm
Dir  Spd
km/h
Gust
km/h
Spd
kts
Gust
kts
18/11:30pm 18.9 13.0 10.5 58 4.6 S 32 44 17 24 1014.6 1013.0 0.0
18/11:06pm 19.3 13.2 10.6 57 4.8 S 33 52 18 28 1014.7 1013.1 0.0
18/11:00pm 19.4 12.5 10.4 56 4.9 S 37 52 20 28 1014.7 1013.1 0.0
18/10:34pm 19.8 12.8 10.0 53 5.3 S 37 56 20 30 1014.7 1013.1 0.0
18/10:30pm 20.0 13.4 10.1 53 5.4 S 35 48 19 26 1014.8 1013.2 0.0
18/10:05pm 20.4 13.7 9.6 50 5.8 S 35 54 19 29 1014.7 1013.1 0.0
18/10:00pm 20.5 13.4 9.7 50 5.9 S 37 54 20 29 1014.6 1013.0 0.0
18/09:30pm 21.3 14.7 7.9 42 7.1 S 32 48 17 26 1014.4 1012.8 0.0
18/09:11pm 21.8 15.0 6.9 38 7.7 S 32 50 17 27 1014.3 1012.7 0.0
18/09:00pm 22.0 14.6 6.7 37 7.9 S 35 50 19 27 1014.0 1012.4 0.0
18/08:30pm 22.6 15.5 6.4 35 8.4 S 33 54 18 29 1013.7 1012.1 0.0
18/08:07pm 23.1 14.3 7.2 36 8.4 S 43 61 23 33 1013.0 1011.3 0.0
18/08:00pm 23.4 14.5 7.5 36 8.4 S 44 57 24 31 1012.8 1011.1 0.0
18/07:30pm 24.5 15.8 7.6 34 9.0 S 43 63 23 34 1012.5 1010.8 0.0
18/07:03pm 25.4 16.5 7.5 32 9.6 S 44 63 24 34 1012.2 1010.6 0.0
18/07:00pm 25.5 16.1 7.1 31 9.8 S 46 63 25 34 1012.2 1010.6 0.0
18/06:30pm 26.8 17.8 7.3 29 10.5 S 44 63 24 34 1011.9 1010.3 0.0
18/06:00pm 27.7 18.6 7.0 27 11.1 S 44 63 24 34 1011.5 1009.9 0.0
18/05:30pm 28.2 19.6 8.0 28 11.1 SSW 43 65 23 35 1011.1 1009.5 0.0
18/05:21pm 28.8 19.9 6.8 25 11.9 SSW 43 61 23 33 1011.4 1009.8 0.0
18/05:00pm 28.8 19.6 5.6 23 12.3 SSW 43 59 23 32 1011.4 1009.8 0.0
18/04:30pm 29.3 20.1 5.4 22 12.6 SSW 43 61 23 33 1011.4 1009.8 0.0
18/04:00pm 28.9 19.6 5.7 23 12.3 SSW 44 63 24 34 1011.6 1010.0 0.0
18/03:59pm 28.7 19.3 5.5 23 12.2 SSW 44 63 24 34 1011.6 1010.0 0.0
18/03:30pm 28.7 18.7 6.1 24 12.0 SSW 48 65 26 35 1011.8 1010.2 0.0
18/03:10pm 28.4 18.6 5.3 23 12.1 SSW 46 67 25 36 1012.0 1010.4 0.0
18/03:00pm 27.8 17.8 6.0 25 11.5 SSW 48 61 26 33 1012.2 1010.6 0.0
18/02:30pm 27.7 18.6 7.0 27 11.1 SSW 44 63 24 34 1012.5 1010.8 0.0
18/02:27pm 28.4 19.4 7.1 26 11.5 SSW 44 63 24 34 1012.5 1010.8 0.0
18/02:00pm 27.5 18.3 6.3 26 11.2 SSW 44 57 24 31 1013.0 1011.3 0.0
18/01:30pm 26.5 18.2 9.4 34 9.5 SSW 43 57 23 31 1013.3 1011.6 0.0
18/01:06pm 26.9 18.8 8.8 32 10.0 SSW 41 59 22 32 1013.4 1011.7 0.0
18/01:00pm 26.6 18.1 8.6 32 9.9 SSW 43 57 23 31 1013.5 1011.9 0.0
18/12:30pm 25.5 17.4 10.1 38 8.6 SSW 43 57 23 31 1013.8 1012.2 0.0
18/12:06pm 24.5 16.7 11.1 43 7.6 SSW 43 61 23 33 1013.9 1012.3 0.0
18/12:00pm 24.5 16.7 11.1 43 7.6 SSW 43 56 23 30 1014.0 1012.4 0.0
18/11:44am 23.9 16.6 11.6 46 7.0 SSW 41 59 22 32 1014.3 1012.7 0.0
18/11:30am 23.3 15.2 12.0 49 6.5 SSW 46 59 25 32 1014.3 1012.7 0.0
18/11:00am 22.6 14.5 12.0 51 6.0 SSW 46 61 25 33 1014.3 1012.7 0.0
18/10:30am 22.4 14.0 12.4 53 5.7 SSW 48 59 26 32 1014.2 1012.6 0.0
18/10:05am 21.9 15.1 11.9 53 5.7 SSW 39 57 21 31 1014.4 1012.8 0.0
18/10:00am 21.8 14.6 11.8 53 5.7 SSW 41 54 22 29 1014.5 1012.9 0.0
18/09:30am 20.9 14.4 11.8 56 5.1 SSW 37 48 20 26 1014.7 1013.1 0.0
18/09:00am 20.7 14.8 12.4 59 4.7 SSW 35 50 19 27 1014.3 1012.7 0.0
18/08:41am 20.7 15.8 12.7 60 4.6 SSW 30 48 16 26 1014.3 1012.7 0.0
18/08:30am 20.1 14.7 12.3 61 4.4 S 32 44 17 24 1014.1 1012.5 0.0
18/08:00am 20.2 14.2 12.2 60 4.5 SSW 35 48 19 26 1013.6 1012.0 0.0
18/07:30am 20.8 15.1 11.2 54 5.4 SSW 32 44 17 24 1013.3 1011.6 0.0
18/07:00am 21.5 17.2 10.9 51 5.9 SSW 24 33 13 18 1012.8 1011.1 0.0
18/06:30am 22.2 18.2 10.4 47 6.5 SSW 22 35 12 19 1012.3 1010.7 0.0
18/06:00am 23.0 17.8 10.1 44 7.1 SSW 28 44 15 24 1011.8 1010.2 0.0
18/05:30am 24.0 18.5 10.7 43 7.5 SSW 30 43 16 23 1011.6 1010.0 0.0
18/05:00am 24.6 19.3 11.2 43 7.6 SW 30 37 16 20 1011.5 1009.9 0.0
18/04:30am 25.7 19.9 11.5 41 8.2 SSW 33 44 18 24 1011.1 1009.5 0.0
18/04:00am 26.3 21.7 10.9 38 8.8 SSW 26 33 14 18 1010.8 1009.2 0.0
18/03:30am 27.3 22.5 5.6 25 11.4 SW 20 30 11 16 1010.7 1009.1 0.0
18/03:00am 25.3 24.5 6.5 30 9.9 CALM 0 0 0 0 1010.3 1008.7 0.0
18/02:30am 26.6 24.9 6.1 27 10.8 SSW 4 7 2 4 1010.3 1008.7 0.0
18/02:00am 26.4 24.2 6.4 28 10.6 SSW 7 9 4 5 1010.5 1008.9 0.0
18/01:30am 26.0 23.1 6.6 29 10.3 SSW 11 13 6 7 1010.7 1009.1 0.0
18/01:00am 27.8 26.9 6.0 25 11.5 CALM 0 0 0 0 1011.2 1009.6 0.0
18/12:30am 28.1 27.1 5.6 24 11.8 CALM 0 6 0 3 1011.4 1009.8 0.0
18/12:00am 29.1 27.8 5.9 23 12.3 SSW 2 7 1 4 1011.5 1009.9 0.0
 
Date/Time
CDT
Temp
°C
App
Temp
°C
Dew
Point
°C
Rel
Hum
%
Delta-T
°C
Wind Press
QNH
hPa
Press
MSL
hPa
Rain since
9am
mm
Dir  Spd
km/h
Gust
km/h
Spd
kts
Gust
kts
17/11:30pm 27.8 25.7 6.0 25 11.5 SSW 6 13 3 7 1011.7 1010.1 0.0
17/11:00pm 29.4 26.7 5.5 22 12.6 SSW 9 13 5 7 1011.4 1009.8 0.0
17/10:30pm 30.1 26.6 5.4 21 13.1 SSW 13 17 7 9 1011.5 1009.9 0.0
17/10:00pm 30.7 27.1 5.2 20 13.5 SSW 13 17 7 9 1011.4 1009.8 0.0
17/09:30pm 31.6 27.3 5.2 19 14.1 SSW 17 20 9 11 1011.1 1009.5 0.0
17/09:00pm 32.0 27.4 3.9 17 14.7 SSW 17 20 9 11 1010.8 1009.2 0.0
17/08:30pm 32.7 27.3 2.7 15 15.5 SSW 20 26 11 14 1010.6 1009.0 0.0
17/08:00pm 33.7 27.9 2.5 14 16.1 SSW 22 30 12 16 1010.4 1008.8 0.0
17/07:30pm 34.6 28.0 2.2 13 16.7 SSW 26 32 14 17 1010.3 1008.7 0.0
17/07:00pm 35.4 28.4 1.7 12 17.3 SSW 28 37 15 20 1010.1 1008.5 0.0
17/06:30pm 35.7 28.9 0.7 11 17.8 SSW 26 35 14 19 1009.9 1008.2 0.0
17/06:00pm 36.2 29.1 1.1 11 18.0 SSW 28 37 15 20 1009.8 1008.1 0.0
17/05:30pm 36.5 30.0 0.0 10 18.4 SSW 24 35 13 19 1009.9 1008.2 0.0
17/05:00pm 36.9 30.0 0.3 10 18.6 SSW 26 35 14 19 1009.9 1008.2 0.0
17/04:30pm 36.9 30.6 1.6 11 18.3 SSW 24 33 13 18 1010.1 1008.5 0.0
17/04:00pm 36.5 30.9 3.7 13 17.5 SSW 22 37 12 20 1010.3 1008.7 0.0
17/03:30pm 36.5 31.5 3.7 13 17.5 SW 19 26 10 14 1010.5 1008.9 0.0
17/03:00pm 36.0 31.5 4.3 14 17.1 SSW 17 26 9 14 1011.0 1009.4 0.0
17/02:30pm 36.1 32.0 4.4 14 17.1 SSE 15 22 8 12 1011.1 1009.5 0.0
17/02:00pm 35.1 30.9 3.6 14 16.7 SSW 15 28 8 15 1011.3 1009.7 0.0
17/01:30pm 34.6 30.3 3.2 14 16.5 SSE 15 22 8 12 1011.6 1010.0 0.0
17/01:00pm 34.3 30.9 4.0 15 16.1 SSE 11 20 6 11 1012.0 1010.4 0.0
17/12:30pm 34.6 30.9 4.2 15 16.2 SSW 13 20 7 11 1012.3 1010.7 0.0
17/12:00pm 32.9 28.8 4.6 17 15.0 SSW 15 24 8 13 1012.5 1010.8 0.0
17/11:30am 32.3 28.7 5.0 18 14.6 SSW 13 20 7 11 1012.8 1011.1 0.0
17/11:00am 31.9 29.7 5.4 19 14.2 SSE 6 15 3 8 1012.9 1011.2 0.0
17/10:30am 30.8 28.2 6.0 21 13.3 S 9 15 5 8 1013.0 1011.3 0.0
17/10:00am 30.5 27.7 7.0 23 12.8 SE 11 15 6 8 1012.9 1011.2 0.0
17/09:30am 28.9 26.7 8.0 27 11.5 SE 9 13 5 7 1012.6 1010.9 0.0
17/09:00am 27.3 24.2 7.2 28 10.8 SE 13 20 7 11 1012.3 1010.7 0.0
17/08:30am 25.9 22.4 7.0 30 10.1 SE 15 19 8 10 1012.3 1010.7 0.0
17/08:00am 23.5 20.9 6.3 33 8.9 SSW 9 13 5 7 1012.2 1010.6 0.0
17/07:30am 21.2 18.6 5.9 37 7.8 SSW 9 11 5 6 1012.0 1010.4 0.0
17/07:00am 20.0 18.8 6.4 41 6.9 SSW 2 7 1 4 1011.6 1010.0 0.0
17/06:30am 21.6 20.3 5.9 36 8.0 SSW 2 6 1 3 1011.2 1009.6 0.0
17/06:00am 19.7 18.7 5.7 40 7.0 CALM 0 0 0 0 1011.1 1009.5 0.0
17/05:30am 19.8 18.8 5.8 40 7.0 CALM 0 0 0 0 1010.9 1009.3 0.0
17/05:00am 21.8 19.6 5.3 34 8.3 SSW 6 9 3 5 1010.7 1009.1 0.0
17/04:30am 21.1 19.4 3.8 32 8.4 SSW 2 7 1 4 1010.6 1009.0 0.0
17/04:00am 21.6 20.1 2.8 29 9.0 CALM 0 6 0 3 1010.7 1009.1 0.0
17/03:30am 21.7 20.1 2.4 28 9.2 CALM 0 0 0 0 1010.7 1009.1 0.0
17/03:00am 22.4 18.9 1.4 25 9.9 SSW 9 13 5 7 1011.0 1009.4 0.0
17/02:30am 22.9 19.1 1.9 25 10.0 SSW 11 17 6 9 1011.1 1009.5 0.0
17/02:00am 23.3 18.7 1.6 24 10.3 SSW 15 20 8 11 1011.2 1009.6 0.0
17/01:30am 23.4 18.7 1.1 23 10.5 SSW 15 19 8 10 1011.3 1009.7 0.0
17/01:00am 23.6 18.2 1.3 23 10.5 SSW 19 24 10 13 1011.2 1009.6 0.0
17/12:30am 24.4 19.5 1.9 23 10.8 SSW 17 22 9 12 1011.4 1009.8 0.0
17/12:00am 25.0 20.5 2.4 23 11.0 S 15 20 8 11 1011.5 1009.9 0.0
 
Date/Time
CDT
Temp
°C
App
Temp
°C
Dew
Point
°C
Rel
Hum
%
Delta-T
°C
Wind Press
QNH
hPa
Press
MSL
hPa
Rain since
9am
mm
Dir  Spd
km/h
Gust
km/h
Spd
kts
Gust
kts
16/11:30pm 25.8 20.9 1.8 21 11.6 S 17 26 9 14 1011.7 1010.1 0.0
16/11:00pm 26.6 20.0 1.8 20 12.1 S 26 33 14 18 1011.7 1010.1 0.0
16/10:30pm 27.2 21.5 3.0 21 12.1 S 22 28 12 15 1011.5 1009.9 0.0
16/10:00pm 27.5 21.6 1.8 19 12.6 SSW 22 28 12 15 1011.5 1009.9 0.0
16/09:30pm 27.8 22.5 2.1 19 12.7 SSW 19 24 10 13 1011.3 1009.7 0.0
16/09:00pm 28.4 22.9 1.8 18 13.1 SSW 20 26 11 14 1011.0 1009.4 0.0
16/08:30pm 29.1 23.3 2.4 18 13.4 SSW 22 28 12 15 1010.7 1009.1 0.0
16/08:00pm 29.8 23.0 2.9 18 13.6 SSW 28 37 15 20 1010.3 1008.7 0.0
16/07:30pm 30.8 24.0 3.0 17 14.2 SSW 28 39 15 21 1010.1 1008.5 0.0
16/07:00pm 31.4 24.7 3.4 17 14.5 SSW 28 35 15 19 1010.0 1008.4 0.0
16/06:30pm 32.0 24.8 3.1 16 14.9 SSW 30 39 16 21 1010.1 1008.5 0.0
16/06:00pm 32.2 25.2 4.1 17 14.8 SSW 30 43 16 23 1010.1 1008.5 0.0
16/05:30pm 32.7 26.2 4.5 17 15.0 SSW 28 37 15 20 1010.2 1008.6 0.0
16/05:00pm 32.7 26.3 5.3 18 14.7 SSW 28 37 15 20 1010.1 1008.5 0.0
16/04:30pm 33.0 27.4 5.5 18 14.9 SSW 24 35 13 19 1010.1 1008.5 0.0
16/04:00pm 32.9 26.9 5.5 18 14.8 SSW 26 37 14 20 1010.3 1008.7 0.0
16/03:30pm 32.6 26.6 5.2 18 14.7 SSW 26 35 14 19 1010.6 1009.0 0.0
16/03:00pm 33.5 28.0 7.5 20 14.5 SW 26 39 14 21 1011.0 1009.4 0.0
16/02:30pm 32.0 27.1 7.0 21 13.8 SSW 22 33 12 18 1011.3 1009.7 0.0
16/02:00pm 31.9 28.0 8.8 24 13.1 SW 19 28 10 15 1011.6 1010.0 0.0
16/01:30pm 31.7 28.7 9.3 25 12.8 SSW 15 26 8 14 1011.7 1010.1 0.0
16/01:00pm 31.0 27.6 9.3 26 12.3 SW 17 30 9 16 1012.0 1010.4 0.0
16/12:30pm 30.1 27.4 9.1 27 11.8 S 13 22 7 12 1012.3 1010.7 0.0
16/12:00pm 29.5 26.9 10.6 31 10.9 SSW 15 28 8 15 1012.6 1010.9 0.0
16/11:30am 28.8 27.8 10.9 33 10.3 ESE 7 13 4 7 1012.8 1011.1 0.0
16/11:00am 28.0 27.7 11.5 35 9.6 S 4 9 2 5 1013.1 1011.4 0.0
16/10:30am 27.9 27.4 12.7 39 9.0 ESE 7 13 4 7 1013.2 1011.5 0.0
16/10:00am 26.6 25.3 12.6 42 8.2 E 11 20 6 11 1013.2 1011.5 0.0
16/09:30am 25.6 25.1 12.8 45 7.5 ESE 7 19 4 10 1013.2 1011.5 0.0
16/09:00am 24.4 23.4 12.4 47 7.0 ESE 9 13 5 7 1013.0 1011.3 0.0
16/08:30am 23.4 21.7 12.4 50 6.3 SE 13 17 7 9 1012.7 1011.0 0.0
16/08:00am 21.3 21.0 13.2 60 4.7 S 7 11 4 6 1012.3 1010.7 0.0
16/07:30am 20.3 19.5 13.0 63 4.2 S 9 13 5 7 1012.0 1010.4 0.0
16/07:00am 19.1 17.6 13.1 68 3.4 S 13 17 7 9 1011.8 1010.2 0.0
16/06:30am 20.1 19.0 13.1 64 4.0 S 11 15 6 8 1011.1 1009.5 0.0
16/06:00am 19.8 18.8 13.3 66 3.7 S 11 13 6 7 1010.8 1009.2 0.0
16/05:30am 19.8 18.4 13.5 67 3.6 S 13 15 7 8 1010.5 1008.9 0.0
16/05:00am 20.0 18.3 13.7 67 3.7 S 15 19 8 10 1010.3 1008.7 0.0
16/04:30am 20.1 17.6 13.6 66 3.8 S 19 24 10 13 1010.4 1008.8 0.0
16/04:00am 20.5 17.9 13.9 66 3.9 SSW 20 26 11 14 1010.5 1008.9 0.0
16/03:30am 21.0 18.1 13.9 64 4.2 SSW 22 28 12 15 1010.4 1008.8 0.0
16/03:00am 21.2 18.3 13.9 63 4.3 S 22 28 12 15 1010.6 1009.0 0.0
16/02:30am 21.6 19.1 14.0 62 4.5 S 20 28 11 15 1010.7 1009.1 0.0

Other formats

Comma delimited format used in spreadsheet applications
http://www.bom.gov.au/fwo/IDS60801/IDS60801.94674.axf

JavaScript Object Notation format (JSON) in row-major order
http://www.bom.gov.au/fwo/IDS60801/IDS60801.94674.json

Data quality

Most of these data are generated automatically and are frequently updated. Quality checks on data are not normally performed. It is possible for incorrect values to appear. Refer to information at About Latest Weather Observations and please check the disclaimer before using these data.